Yuma, AZ

6:48 PM MST on August 27, 2016 (GMT -0700)
APRSWXNET | | Change Station

Elev 125 ft 32.72 °N, 114.65 °W | Updated 18 minutes ago

Clear
Clear
98 °F
Feels Like 95 °F
N
3
Wind Variable Wind from SW
Gusts 7.0 mph

Today
High -- | Low -- °F
--% Chance of Precip.
Yesterday
High -- | Low -- °F
Precip. -- in
Pressure 29.76 in
Visibility 10.0 miles
Clouds Clear
Heat Index 95 °F
Dew Point 51 °F
Humidity 21%
Rainfall in
Snow Depth Not available.
6:10 AM 7:08 PM
Waning Crescent, 20% visible
METAR KNYL 280057Z AUTO 17008KT 10SM CLR 37/03 A2977 RMK AO2 SLP076 T03720028
Pressure 29.76 in
Visibility 10.0 miles
Clouds Clear
Heat Index 95 °F
Dew Point 51 °F
Humidity 21%
Rainfall in
Snow Depth Not available.
6:10 AM 7:08 PM
Waning Crescent, 20% visible
METAR KNYL 280057Z AUTO 17008KT 10SM CLR 37/03 A2977 RMK AO2 SLP076 T03720028

10-Day Weather Forecast

Almanac

Astronomy

Aug. 27, 2016 Rise Set
Actual Time
Civil Twilight
Nautical Twilight
Astronomical Twilight
Moon
Length of Visible Light
Length of Day
Tomorrow will be .
, % of the Moon is Illuminated

Today's Extremes

State Highs State Lows

Community

WunderPhotos

Upload Photos

1,935,489 photos uploaded!

WunderBlog® & News

Nearby

Air Quality

  Air Quality AQ Index Pollutant
Not available.

Snow Depth

Station Depth Elevation

Earthquake Activity

City Distance Mag. Time & Date
Minimum magnitude displayed is 2.5.

Coastal Water Temperatures

Place Temperature

Stations

Nearby Weather Stations

Station Location Temp. Windchill Dew Point Humidity Wind Precip. Elev Updated Type
                   

Watches & Warnings

There are currently no watches in effect.